createdAt,value
2023-05-15T00:00:05.058Z,68.80
2023-05-15T00:01:05.125Z,69.70
2023-05-15T00:02:11.321Z,70.00
2023-05-15T00:04:05.019Z,69.20
2023-05-15T00:05:05.264Z,69.70
2023-05-15T00:06:05.029Z,68.90
2023-05-15T00:07:05.062Z,68.50
2023-05-15T00:08:05.039Z,68.40
2023-05-15T00:09:05.067Z,69.90
2023-05-15T00:10:08.989Z,69.50
2023-05-15T00:11:05.057Z,69.90
2023-05-15T00:12:05.065Z,69.30
2023-05-15T00:13:08.769Z,68.90
2023-05-15T00:15:06.700Z,69.50
2023-05-15T00:16:12.053Z,69.50
2023-05-15T00:17:09.773Z,69.00
2023-05-15T00:19:09.303Z,68.90
2023-05-15T00:20:05.081Z,68.90
2023-05-15T00:21:06.186Z,69.40
2023-05-15T00:22:08.739Z,69.80
2023-05-15T00:24:05.026Z,69.50
2023-05-15T00:25:05.080Z,69.40
2023-05-15T00:26:05.089Z,69.50
2023-05-15T00:27:05.038Z,69.50
2023-05-15T00:28:08.592Z,69.50
2023-05-15T00:29:05.042Z,69.70
2023-05-15T00:30:05.053Z,69.50
2023-05-15T00:31:11.569Z,69.50
2023-05-15T00:32:05.051Z,69.50
2023-05-15T00:33:05.184Z,68.80
2023-05-15T00:34:08.985Z,69.60
2023-05-15T00:35:05.120Z,69.60
2023-05-15T00:36:08.769Z,68.80
2023-05-15T00:38:05.036Z,69.30
2023-05-15T00:39:05.098Z,69.70
2023-05-15T00:40:05.087Z,69.70
2023-05-15T00:41:11.754Z,69.40
2023-05-15T00:42:05.087Z,69.80
2023-05-15T00:43:08.688Z,69.60
2023-05-15T00:44:05.128Z,69.50
2023-05-15T00:45:05.080Z,69.70
2023-05-15T00:46:05.064Z,69.60
2023-05-15T00:47:05.127Z,69.40
2023-05-15T00:48:05.199Z,70.10
2023-05-15T00:49:05.081Z,70.40
2023-05-15T00:50:05.058Z,70.30
2023-05-15T00:51:05.100Z,70.20
2023-05-15T00:52:05.098Z,70.00
2023-05-15T00:53:05.090Z,67.20
2023-05-15T00:54:05.130Z,70.90
2023-05-15T00:55:08.857Z,70.20
2023-05-15T00:57:06.969Z,71.70
2023-05-15T00:58:05.129Z,71.50
2023-05-15T00:59:13.819Z,70.40
2023-05-15T01:00:05.097Z,70.90
2023-05-15T01:01:08.801Z,70.50
2023-05-15T01:02:07.061Z,70.90
2023-05-15T01:03:11.345Z,70.90
2023-05-15T01:05:07.032Z,71.20
2023-05-15T01:06:08.648Z,71.60
2023-05-15T01:08:05.088Z,70.30
2023-05-15T01:09:05.129Z,71.30
2023-05-15T01:10:05.087Z,71.30
2023-05-15T01:11:05.113Z,71.00
2023-05-15T01:12:04.945Z,70.70
2023-05-15T01:13:05.100Z,69.70
2023-05-15T01:14:05.140Z,70.00
2023-05-15T01:15:05.079Z,70.80
2023-05-15T01:16:05.139Z,71.40
2023-05-15T01:17:05.121Z,70.90
2023-05-15T01:18:05.147Z,71.90
2023-05-15T01:19:05.370Z,71.80
2023-05-15T01:20:05.299Z,71.70
2023-05-15T01:21:05.125Z,71.80
2023-05-15T01:22:05.147Z,72.00
2023-05-15T01:23:05.106Z,72.00
2023-05-15T01:24:05.159Z,72.30
2023-05-15T01:25:05.154Z,71.90
2023-05-15T01:26:08.895Z,71.40
2023-05-15T01:27:05.140Z,71.30
2023-05-15T01:28:05.139Z,72.10
2023-05-15T01:29:08.800Z,72.50
2023-05-15T01:30:05.109Z,72.70
2023-05-15T01:31:05.199Z,73.10
2023-05-15T01:32:05.209Z,72.50
2023-05-15T01:33:05.212Z,72.70
2023-05-15T01:34:05.110Z,72.00
2023-05-15T01:35:05.159Z,74.00
2023-05-15T01:36:05.115Z,73.20
2023-05-15T01:37:05.167Z,74.00
2023-05-15T01:38:05.122Z,74.10
2023-05-15T01:39:08.806Z,74.50
2023-05-15T01:40:05.158Z,74.80
2023-05-15T01:41:05.121Z,73.40
2023-05-15T01:42:05.136Z,73.60
2023-05-15T01:43:05.120Z,75.30
2023-05-15T01:44:05.187Z,75.20
2023-05-15T01:45:05.151Z,74.90
2023-05-15T01:46:05.207Z,75.20
2023-05-15T01:47:05.136Z,74.80
2023-05-15T01:48:05.138Z,74.50
2023-05-15T01:49:05.204Z,74.20
2023-05-15T01:50:05.105Z,74.10
2023-05-15T01:51:06.188Z,74.40
2023-05-15T01:52:05.124Z,74.10
2023-05-15T01:53:11.212Z,74.50
2023-05-15T01:54:11.201Z,74.20
2023-05-15T01:55:11.229Z,74.00
2023-05-15T01:57:06.694Z,73.30
2023-05-15T01:59:05.109Z,73.70
2023-05-15T02:00:08.759Z,74.30
2023-05-15T02:02:05.307Z,74.20
2023-05-15T02:03:05.430Z,74.30
2023-05-15T02:04:05.456Z,73.90
2023-05-15T02:05:09.154Z,74.30
2023-05-15T02:06:08.679Z,74.20
2023-05-15T02:07:05.148Z,74.30
2023-05-15T02:08:06.493Z,74.40
2023-05-15T02:10:05.205Z,73.00
2023-05-15T02:11:08.812Z,73.60
2023-05-15T02:13:05.156Z,73.10
2023-05-15T02:14:05.198Z,74.10
2023-05-15T02:15:08.895Z,73.50
2023-05-15T02:17:05.175Z,74.20
2023-05-15T02:18:08.837Z,73.60
2023-05-15T02:19:09.544Z,73.70
2023-05-15T02:21:05.140Z,72.30
2023-05-15T02:22:05.186Z,72.70
2023-05-15T02:23:05.149Z,73.40
2023-05-15T02:24:05.187Z,73.00
2023-05-15T02:25:05.256Z,72.90
2023-05-15T02:26:05.154Z,74.20
2023-05-15T02:27:05.186Z,74.20
2023-05-15T02:28:05.211Z,73.80
2023-05-15T02:29:05.137Z,73.80
2023-05-15T02:30:05.185Z,73.30
2023-05-15T02:31:05.222Z,73.40
2023-05-15T02:32:05.260Z,73.50
2023-05-15T02:33:09.037Z,67.00
2023-05-15T02:34:05.206Z,73.50
2023-05-15T02:35:05.166Z,72.50
2023-05-15T02:36:06.276Z,73.50
2023-05-15T02:37:08.747Z,73.60
2023-05-15T02:38:05.206Z,73.50
2023-05-15T02:39:08.994Z,73.60
2023-05-15T02:41:05.063Z,73.70
2023-05-15T02:42:05.040Z,73.70
2023-05-15T02:43:05.090Z,73.60
2023-05-15T02:44:08.703Z,73.90
2023-05-15T02:46:11.475Z,73.70
2023-05-15T02:48:08.890Z,73.80
2023-05-15T02:49:05.210Z,73.70
2023-05-15T02:50:05.215Z,73.50
2023-05-15T02:51:05.186Z,73.70
2023-05-15T02:52:05.235Z,73.70
2023-05-15T02:53:05.198Z,73.70
2023-05-15T02:54:05.277Z,72.70
2023-05-15T02:55:08.992Z,74.50
2023-05-15T02:56:05.278Z,74.40
2023-05-15T02:57:05.181Z,74.00
2023-05-15T02:58:05.262Z,74.70
2023-05-15T02:59:05.195Z,74.40
2023-05-15T03:00:05.237Z,74.40
2023-05-15T03:01:05.301Z,74.50
2023-05-15T03:02:05.197Z,73.80
2023-05-15T03:03:05.192Z,73.50
2023-05-15T03:04:05.272Z,73.70
2023-05-15T03:05:06.399Z,74.20
2023-05-15T03:06:05.222Z,74.70
2023-05-15T03:07:05.264Z,75.00
2023-05-15T03:08:08.910Z,74.90
2023-05-15T03:10:11.322Z,74.90
2023-05-15T03:11:11.333Z,74.60
2023-05-15T03:13:05.260Z,73.60
2023-05-15T03:14:05.177Z,75.20
2023-05-15T03:15:05.243Z,73.80
2023-05-15T03:16:05.235Z,75.40
2023-05-15T03:17:05.435Z,75.20
2023-05-15T03:18:06.779Z,75.70
2023-05-15T03:19:06.947Z,74.00
2023-05-15T03:20:06.071Z,74.40
2023-05-15T03:21:08.614Z,74.00
2023-05-15T03:23:05.256Z,74.80
2023-05-15T03:24:05.204Z,73.70
2023-05-15T03:25:11.423Z,74.70
2023-05-15T03:27:06.020Z,75.10
2023-05-15T03:29:04.988Z,74.20
2023-05-15T03:30:06.079Z,75.20
2023-05-15T03:32:05.079Z,75.20
2023-05-15T03:33:08.880Z,75.00
2023-05-15T03:34:05.213Z,74.90
2023-05-15T03:35:05.263Z,74.50
2023-05-15T03:36:05.230Z,73.70
2023-05-15T03:37:05.251Z,75.30
2023-05-15T03:38:05.172Z,75.20
2023-05-15T03:39:05.231Z,75.50
2023-05-15T03:40:05.246Z,74.60
2023-05-15T03:41:06.526Z,75.20
2023-05-15T03:43:05.267Z,76.60
2023-05-15T03:44:09.077Z,75.90
2023-05-15T03:45:05.099Z,75.90
2023-05-15T03:46:08.842Z,75.80
2023-05-15T03:47:05.079Z,75.80
2023-05-15T03:48:05.396Z,76.00
2023-05-15T03:49:05.230Z,76.00
2023-05-15T03:50:05.267Z,75.70
2023-05-15T03:51:08.871Z,76.00
2023-05-15T03:53:05.214Z,75.50
2023-05-15T03:54:08.968Z,75.90
2023-05-15T03:55:06.020Z,76.00
2023-05-15T03:57:05.275Z,74.30
2023-05-15T03:58:05.266Z,76.10
2023-05-15T03:59:05.224Z,75.90
2023-05-15T04:00:05.226Z,76.20
2023-05-15T04:01:05.352Z,76.40
2023-05-15T04:02:06.214Z,76.00
2023-05-15T04:03:05.270Z,76.60
2023-05-15T04:04:05.306Z,76.60
2023-05-15T04:05:05.453Z,75.50
2023-05-15T04:06:05.269Z,75.20
2023-05-15T04:07:05.336Z,76.10
2023-05-15T04:08:05.258Z,75.20
2023-05-15T04:09:05.268Z,75.00
2023-05-15T04:10:05.332Z,74.50
2023-05-15T04:11:05.264Z,76.20
2023-05-15T04:12:09.050Z,75.90
2023-05-15T04:13:08.741Z,76.10
2023-05-15T04:14:09.236Z,76.20
2023-05-15T04:15:08.743Z,76.10
2023-05-15T04:17:05.307Z,76.40
2023-05-15T04:18:05.279Z,76.70
2023-05-15T04:19:09.047Z,76.10
2023-05-15T04:20:06.188Z,76.00
2023-05-15T04:22:06.218Z,75.90
2023-05-15T04:23:05.147Z,75.90
2023-05-15T04:24:05.281Z,76.00
2023-05-15T04:25:06.501Z,76.50
2023-05-15T04:26:05.272Z,76.40
2023-05-15T04:27:09.082Z,75.00
2023-05-15T04:29:05.419Z,76.60
2023-05-15T04:30:05.262Z,76.50
2023-05-15T04:31:05.322Z,76.20
2023-05-15T04:32:05.383Z,76.10
2023-05-15T04:33:05.461Z,76.20
2023-05-15T04:34:09.167Z,76.20
2023-05-15T04:35:08.665Z,76.20
2023-05-15T04:37:05.301Z,76.20
2023-05-15T04:38:08.935Z,76.30
2023-05-15T04:39:05.331Z,76.30
2023-05-15T04:40:06.638Z,76.40
2023-05-15T04:41:05.292Z,76.40
2023-05-15T04:42:05.303Z,74.60
2023-05-15T04:43:13.787Z,76.60
2023-05-15T04:46:05.482Z,76.40
2023-05-15T04:47:09.142Z,76.40
2023-05-15T04:48:06.222Z,76.50
2023-05-15T04:49:05.187Z,76.40
2023-05-15T04:50:05.190Z,76.60
2023-05-15T04:51:04.857Z,76.50
2023-05-15T04:52:04.988Z,76.50
2023-05-15T04:53:04.979Z,76.40
2023-05-15T04:54:06.165Z,76.40
2023-05-15T04:55:05.168Z,76.20
2023-05-15T04:56:08.721Z,75.80
2023-05-15T04:58:05.319Z,75.10
2023-05-15T04:59:05.296Z,75.50
2023-05-15T05:00:08.970Z,76.00
2023-05-15T05:02:09.086Z,76.40
2023-05-15T05:03:05.329Z,76.50
2023-05-15T05:04:05.471Z,76.50
2023-05-15T05:05:05.324Z,76.20
2023-05-15T05:06:05.540Z,75.80
2023-05-15T05:07:05.398Z,76.10
2023-05-15T05:08:05.347Z,75.50
2023-05-15T05:09:09.009Z,76.70
2023-05-15T05:10:05.403Z,76.70
2023-05-15T05:11:05.346Z,76.60
2023-05-15T05:12:08.983Z,76.80
2023-05-15T05:14:06.087Z,76.50
2023-05-15T05:15:05.079Z,76.60
2023-05-15T05:16:05.116Z,76.50
2023-05-15T05:17:05.254Z,76.60
2023-05-15T05:18:06.463Z,76.70
2023-05-15T05:19:06.663Z,76.60
2023-05-15T05:21:08.964Z,75.90
2023-05-15T05:23:05.348Z,75.70
2023-05-15T05:24:09.027Z,76.80
2023-05-15T05:25:04.999Z,76.90
2023-05-15T05:26:06.643Z,76.30
2023-05-15T05:28:05.358Z,76.90
2023-05-15T05:29:05.385Z,76.90
2023-05-15T05:30:09.133Z,76.80
2023-05-15T05:32:08.878Z,76.80
2023-05-15T05:33:05.525Z,76.60
2023-05-15T05:34:05.385Z,76.90
2023-05-15T05:35:05.448Z,77.00
2023-05-15T05:36:05.378Z,76.60
2023-05-15T05:37:14.194Z,77.10
2023-05-15T05:38:05.200Z,77.20
2023-05-15T05:39:05.202Z,76.80
2023-05-15T05:40:05.242Z,75.70
2023-05-15T05:41:05.289Z,75.00
2023-05-15T05:42:08.849Z,75.50
2023-05-15T05:44:11.622Z,75.80
2023-05-15T05:46:05.414Z,76.10
2023-05-15T05:47:06.622Z,77.70
2023-05-15T05:49:05.410Z,77.50
2023-05-15T05:50:05.380Z,76.70
2023-05-15T05:51:05.432Z,76.50
2023-05-15T05:52:05.429Z,76.20
2023-05-15T05:54:05.347Z,76.30
2023-05-15T05:55:05.500Z,75.70
2023-05-15T05:57:05.025Z,76.20
2023-05-15T05:58:08.634Z,76.20
2023-05-15T05:59:05.349Z,76.10
2023-05-15T06:00:09.015Z,75.80
2023-05-15T06:04:05.592Z,74.70
2023-05-15T06:05:05.455Z,74.10
2023-05-15T06:06:09.208Z,73.80
2023-05-15T06:07:05.376Z,73.20
2023-05-15T06:08:08.932Z,71.70
2023-05-15T06:11:08.838Z,71.60
2023-05-15T06:15:05.547Z,69.90
2023-05-15T06:16:05.544Z,68.70
2023-05-15T06:18:12.827Z,67.30
2023-05-15T06:20:09.271Z,66.00
2023-05-15T06:21:08.872Z,65.30
2023-05-15T06:24:05.686Z,64.10
2023-05-15T06:25:05.490Z,63.30
2023-05-15T06:26:05.448Z,63.40
2023-05-15T06:27:09.233Z,62.20
2023-05-15T06:28:05.307Z,62.00
2023-05-15T06:29:05.313Z,61.60
2023-05-15T06:30:05.526Z,59.60
2023-05-15T06:31:09.187Z,58.70
2023-05-15T06:32:05.220Z,58.40
2023-05-15T06:33:08.853Z,57.90
2023-05-15T06:35:06.704Z,58.00
2023-05-15T06:36:05.474Z,57.80
2023-05-15T06:37:06.669Z,56.50
2023-05-15T06:38:05.432Z,56.30
2023-05-15T06:39:09.098Z,56.20
2023-05-15T06:40:05.121Z,56.00
2023-05-15T06:41:05.169Z,55.90
2023-05-15T06:42:08.759Z,54.40
2023-05-15T06:44:05.458Z,54.80
2023-05-15T06:45:05.468Z,53.00
2023-05-15T06:46:05.628Z,53.50
2023-05-15T06:47:12.274Z,53.00
2023-05-15T06:48:05.320Z,52.90
2023-05-15T06:49:08.961Z,52.70
2023-05-15T06:51:05.514Z,52.90
2023-05-15T06:52:05.499Z,52.10
2023-05-15T06:53:05.465Z,51.10
2023-05-15T06:54:05.447Z,51.40
2023-05-15T06:55:06.612Z,50.00
2023-05-15T06:57:06.674Z,49.60
2023-05-15T06:59:05.158Z,49.60
2023-05-15T07:00:06.213Z,49.50
2023-05-15T07:01:05.400Z,49.80
2023-05-15T07:02:05.643Z,49.70
2023-05-15T07:03:05.693Z,49.90
2023-05-15T07:05:11.407Z,49.00
2023-05-15T07:07:05.553Z,49.60
2023-05-15T07:08:09.237Z,49.60
2023-05-15T07:09:13.894Z,49.10
2023-05-15T07:10:05.523Z,49.00
2023-05-15T07:11:05.795Z,48.10
2023-05-15T07:12:05.530Z,48.70
2023-05-15T07:13:09.128Z,49.40
2023-05-15T07:15:05.213Z,49.00
2023-05-15T07:16:08.866Z,48.90
2023-05-15T07:18:06.089Z,48.70
2023-05-15T07:19:05.480Z,48.80
2023-05-15T07:20:05.605Z,47.90
2023-05-15T07:21:09.354Z,47.40
2023-05-15T07:22:05.291Z,47.40
2023-05-15T07:23:05.366Z,46.20
2023-05-15T07:24:05.595Z,46.30
2023-05-15T07:25:05.574Z,46.20
2023-05-15T07:26:05.493Z,46.30
2023-05-15T07:27:05.530Z,46.80
2023-05-15T07:28:05.557Z,47.00
2023-05-15T07:31:05.576Z,47.90
2023-05-15T07:32:06.913Z,48.50
2023-05-15T07:33:06.142Z,47.90
2023-05-15T07:34:05.129Z,48.20
2023-05-15T07:35:06.152Z,48.00
2023-05-15T07:37:05.153Z,47.00
2023-05-15T07:38:08.773Z,47.80
2023-05-15T07:40:05.489Z,48.30
2023-05-15T07:41:05.506Z,48.60
2023-05-15T07:42:05.545Z,48.40
2023-05-15T07:43:05.461Z,48.40
2023-05-15T07:44:05.531Z,47.30
2023-05-15T07:45:05.579Z,47.60
2023-05-15T07:46:05.669Z,48.30
2023-05-15T07:47:09.506Z,48.30
2023-05-15T07:48:05.591Z,48.10
2023-05-15T07:49:05.484Z,47.60
2023-05-15T07:50:05.465Z,46.80
2023-05-15T07:51:06.648Z,46.70
2023-05-15T07:52:05.462Z,46.40
2023-05-15T07:53:06.554Z,46.30
2023-05-15T07:55:05.536Z,45.50
2023-05-15T07:56:05.482Z,45.30
2023-05-15T07:57:05.540Z,44.40
2023-05-15T07:58:05.468Z,44.00
2023-05-15T07:59:09.181Z,44.80
2023-05-15T08:00:05.195Z,44.90
2023-05-15T08:01:05.340Z,45.00
2023-05-15T08:02:08.980Z,44.50
2023-05-15T08:03:05.360Z,44.60
2023-05-15T08:04:05.717Z,43.40
2023-05-15T08:05:05.492Z,43.60
2023-05-15T08:06:09.109Z,41.80
2023-05-15T08:07:08.635Z,42.30
2023-05-15T08:09:05.538Z,45.20
2023-05-15T08:10:05.521Z,44.20
2023-05-15T08:11:05.526Z,44.90
2023-05-15T08:12:05.540Z,43.90
2023-05-15T08:13:05.528Z,43.70
2023-05-15T08:14:05.651Z,43.90
2023-05-15T08:15:05.536Z,44.20
2023-05-15T08:16:09.264Z,44.90
2023-05-15T08:17:05.340Z,44.80
2023-05-15T08:18:11.549Z,43.50
2023-05-15T08:20:05.530Z,44.50
2023-05-15T08:21:09.157Z,44.20
2023-05-15T08:23:06.054Z,43.90
2023-05-15T08:25:05.031Z,42.90
2023-05-15T08:26:05.026Z,43.20
2023-05-15T08:27:05.042Z,42.40
2023-05-15T08:28:05.186Z,42.40
2023-05-15T08:29:06.240Z,43.30
2023-05-15T08:31:05.362Z,43.30
2023-05-15T08:32:06.439Z,43.10
2023-05-15T08:34:05.606Z,43.20
2023-05-15T08:35:05.525Z,43.40
2023-05-15T08:36:05.708Z,43.60
2023-05-15T08:37:09.499Z,43.50
2023-05-15T08:38:05.536Z,43.30
2023-05-15T08:39:09.001Z,43.30
2023-05-15T08:40:04.990Z,43.50
2023-05-15T08:41:05.202Z,42.90
2023-05-15T08:42:05.290Z,42.30
2023-05-15T08:43:06.369Z,42.30
2023-05-15T08:45:06.271Z,42.80
2023-05-15T08:46:06.285Z,42.60
2023-05-15T08:47:08.972Z,42.90
2023-05-15T08:48:05.081Z,42.80
2023-05-15T08:49:06.221Z,42.80
2023-05-15T08:51:05.290Z,42.30
2023-05-15T08:52:08.833Z,40.50
2023-05-15T08:54:05.579Z,41.40
2023-05-15T08:55:05.541Z,39.70
2023-05-15T08:56:05.541Z,38.50
2023-05-15T08:57:05.626Z,39.70
2023-05-15T08:58:05.563Z,39.30
2023-05-15T08:59:05.547Z,39.90
2023-05-15T09:00:08.990Z,39.40
2023-05-15T09:01:05.091Z,39.20
2023-05-15T09:02:05.413Z,39.30
2023-05-15T09:03:06.744Z,37.80
2023-05-15T09:05:05.602Z,36.70
2023-05-15T09:06:05.573Z,37.30
2023-05-15T09:07:05.565Z,35.80
2023-05-15T09:08:05.603Z,37.40
2023-05-15T09:09:05.619Z,37.40
2023-05-15T09:10:09.283Z,38.70
2023-05-15T09:12:05.268Z,38.90
2023-05-15T09:13:05.227Z,39.30
2023-05-15T09:14:05.248Z,38.60
2023-05-15T09:15:05.284Z,38.90
2023-05-15T09:16:09.014Z,37.50
2023-05-15T09:18:05.078Z,37.60
2023-05-15T09:19:06.267Z,36.20
2023-05-15T09:21:06.245Z,37.50
2023-05-15T09:22:06.215Z,37.10
2023-05-15T09:24:05.138Z,37.60
2023-05-15T09:25:05.127Z,37.60
2023-05-15T09:26:08.711Z,37.70
2023-05-15T09:28:09.321Z,37.90
2023-05-15T09:29:05.296Z,37.80
2023-05-15T09:30:05.306Z,38.00
2023-05-15T09:31:05.507Z,38.50
2023-05-15T09:32:05.828Z,37.70
2023-05-15T09:33:10.326Z,37.90
2023-05-15T09:34:05.303Z,37.80
2023-05-15T09:35:05.311Z,38.20
2023-05-15T09:36:05.395Z,38.30
2023-05-15T09:37:05.453Z,38.70
2023-05-15T09:38:05.461Z,39.30
2023-05-15T09:39:05.498Z,38.70
2023-05-15T09:40:05.477Z,38.80
2023-05-15T09:41:05.713Z,38.70
2023-05-15T09:42:06.810Z,39.90
2023-05-15T09:43:11.849Z,40.10
2023-05-15T09:44:05.680Z,40.30
2023-05-15T09:45:09.402Z,40.70
2023-05-15T09:46:05.440Z,40.80
2023-05-15T09:47:09.364Z,41.00
2023-05-15T09:48:05.473Z,40.40
2023-05-15T09:49:05.607Z,40.30
2023-05-15T09:50:05.646Z,41.00
2023-05-15T09:51:05.828Z,41.10
2023-05-15T09:52:05.641Z,40.40
2023-05-15T09:53:09.284Z,41.10
2023-05-15T09:54:05.343Z,40.80
2023-05-15T09:55:06.404Z,41.40
2023-05-15T09:56:05.433Z,41.30
2023-05-15T09:57:05.382Z,41.20
2023-05-15T09:58:08.992Z,38.50
2023-05-15T09:59:08.682Z,39.50
2023-05-15T10:00:09.309Z,38.80
2023-05-15T10:01:11.564Z,38.70
2023-05-15T10:02:05.600Z,38.60
2023-05-15T10:03:05.754Z,38.50
2023-05-15T10:04:05.644Z,38.70
2023-05-15T10:05:05.729Z,38.40
2023-05-15T10:06:05.737Z,39.00
2023-05-15T10:07:05.664Z,39.40
2023-05-15T10:08:05.612Z,39.70
2023-05-15T10:09:09.196Z,39.70
2023-05-15T10:10:08.012Z,40.50
2023-05-15T10:11:08.546Z,39.80
2023-05-15T10:13:05.689Z,40.20
2023-05-15T10:14:05.620Z,40.60
2023-05-15T10:15:06.770Z,40.30
2023-05-15T10:17:05.658Z,40.40
2023-05-15T10:18:05.579Z,40.50
2023-05-15T10:19:05.799Z,40.80
2023-05-15T10:20:09.493Z,40.30
2023-05-15T10:21:05.497Z,40.30
2023-05-15T10:22:05.504Z,40.40
2023-05-15T10:23:06.663Z,40.10
2023-05-15T10:25:07.485Z,39.90
2023-05-15T10:27:09.186Z,40.00
2023-05-15T10:28:06.117Z,39.60
2023-05-15T10:30:06.218Z,39.70
2023-05-15T10:31:06.420Z,39.60
2023-05-15T10:32:08.898Z,38.80
2023-05-15T10:34:17.089Z,39.20
2023-05-15T10:36:08.834Z,39.20
2023-05-15T10:38:05.725Z,37.60
2023-05-15T10:39:05.657Z,37.40
2023-05-15T10:40:05.687Z,37.70
2023-05-15T10:41:17.896Z,37.00
2023-05-15T10:43:05.132Z,38.90
2023-05-15T10:44:03.596Z,38.00
2023-05-15T10:45:05.109Z,38.80
2023-05-15T10:46:05.160Z,38.90
2023-05-15T10:47:06.374Z,37.30
2023-05-15T10:49:05.400Z,36.30
2023-05-15T10:50:06.485Z,36.60
2023-05-15T10:52:06.514Z,36.80
2023-05-15T10:54:08.918Z,33.90
2023-05-15T10:56:05.775Z,34.90
2023-05-15T10:57:05.679Z,34.10
2023-05-15T10:58:05.637Z,34.10
2023-05-15T10:59:06.872Z,33.70
2023-05-15T11:00:09.423Z,34.20
2023-05-15T11:01:06.417Z,33.80
2023-05-15T11:02:09.081Z,34.80
2023-05-15T11:03:03.670Z,34.80
2023-05-15T11:04:11.443Z,35.50
2023-05-15T11:06:05.505Z,34.90
2023-05-15T11:07:05.661Z,34.10
2023-05-15T11:08:05.672Z,33.60
2023-05-15T11:09:14.452Z,32.90
2023-05-15T11:11:05.696Z,32.90
2023-05-15T11:12:09.457Z,33.70
2023-05-15T11:14:05.335Z,33.60
2023-05-15T11:15:05.364Z,33.40
2023-05-15T11:16:06.516Z,34.50
2023-05-15T11:18:05.776Z,34.90
2023-05-15T11:19:05.821Z,35.20
2023-05-15T11:21:06.551Z,32.70
2023-05-15T11:22:05.553Z,32.30
2023-05-15T11:23:06.552Z,32.60
2023-05-15T11:24:06.570Z,32.90
2023-05-15T11:26:05.512Z,33.50
2023-05-15T11:27:05.653Z,33.20
2023-05-15T11:28:05.780Z,32.10
2023-05-15T11:29:05.714Z,32.20
2023-05-15T11:30:05.709Z,32.20
2023-05-15T11:31:05.824Z,32.60
2023-05-15T11:32:05.659Z,31.90
2023-05-15T11:33:05.826Z,31.80
2023-05-15T11:34:05.676Z,31.30
2023-05-15T11:35:05.708Z,32.20
2023-05-15T11:36:05.765Z,31.70
2023-05-15T11:37:05.722Z,31.90
2023-05-15T11:38:09.441Z,32.00
2023-05-15T11:40:05.567Z,30.70
2023-05-15T11:41:05.554Z,30.80
2023-05-15T11:42:09.200Z,30.50
2023-05-15T11:43:06.196Z,30.20
2023-05-15T11:44:08.693Z,30.90
2023-05-15T11:46:09.491Z,31.10
2023-05-15T11:48:05.855Z,32.20
2023-05-15T11:49:05.961Z,31.70
2023-05-15T11:50:05.744Z,31.40
2023-05-15T11:51:09.430Z,31.00
2023-05-15T11:53:09.122Z,31.40
2023-05-15T11:56:05.420Z,30.60
2023-05-15T11:57:11.750Z,30.80
2023-05-15T11:59:05.726Z,31.00
2023-05-15T12:00:05.770Z,31.50
2023-05-15T12:01:05.709Z,30.50
2023-05-15T12:02:05.718Z,30.90
2023-05-15T12:03:05.927Z,31.20
2023-05-15T12:04:03.684Z,31.70
2023-05-15T12:05:05.317Z,33.00
2023-05-15T12:07:05.485Z,31.90
2023-05-15T12:08:05.452Z,32.10
2023-05-15T12:09:06.548Z,34.00
2023-05-15T12:10:11.604Z,33.90
2023-05-15T12:11:05.579Z,34.00
2023-05-15T12:12:05.565Z,33.80
2023-05-15T12:13:05.780Z,34.60
2023-05-15T12:14:09.496Z,35.90
2023-05-15T12:15:08.931Z,35.30
2023-05-15T12:17:05.747Z,35.60
2023-05-15T12:18:05.877Z,35.20
2023-05-15T12:19:09.570Z,34.20
2023-05-15T12:20:09.341Z,33.20
2023-05-15T12:21:09.001Z,33.60
2023-05-15T12:22:06.096Z,34.10
2023-05-15T12:23:06.173Z,34.40
2023-05-15T12:24:08.605Z,34.40
2023-05-15T12:26:05.825Z,35.50
2023-05-15T12:27:05.777Z,35.70
2023-05-15T12:28:03.616Z,35.30
2023-05-15T12:29:05.424Z,35.00
2023-05-15T12:30:05.438Z,35.20
2023-05-15T12:31:09.033Z,35.20
2023-05-15T12:33:05.896Z,35.10
2023-05-15T12:34:03.453Z,35.00
2023-05-15T12:35:06.609Z,34.60
2023-05-15T12:36:05.613Z,34.60
2023-05-15T12:37:09.393Z,34.80
2023-05-15T12:38:06.363Z,35.70
2023-05-15T12:40:08.919Z,34.90
2023-05-15T12:42:05.810Z,35.30
2023-05-15T12:43:09.467Z,35.40
2023-05-15T12:44:05.442Z,35.50
2023-05-15T12:45:05.480Z,35.30
2023-05-15T12:46:11.777Z,35.10
2023-05-15T12:48:09.375Z,35.30
2023-05-15T12:49:06.448Z,35.70
2023-05-15T12:50:05.437Z,35.50
2023-05-15T12:51:06.494Z,35.80
2023-05-15T12:52:06.411Z,35.70
2023-05-15T12:54:05.318Z,35.90
2023-05-15T12:55:06.390Z,35.60
2023-05-15T12:56:05.471Z,35.70
2023-05-15T12:57:06.440Z,35.30
2023-05-15T12:59:05.280Z,35.10
2023-05-15T13:00:05.314Z,35.40
2023-05-15T13:01:05.507Z,35.90
2023-05-15T13:02:09.451Z,35.60
2023-05-15T13:03:06.706Z,35.60
2023-05-15T13:04:05.699Z,35.30
2023-05-15T13:05:09.342Z,36.60
2023-05-15T13:07:08.866Z,36.40
2023-05-15T13:09:09.456Z,36.30
2023-05-15T13:10:05.480Z,36.30
2023-05-15T13:11:09.628Z,35.90
2023-05-15T13:12:06.600Z,35.90
2023-05-15T13:13:11.741Z,37.30
2023-05-15T13:15:11.877Z,36.20
2023-05-15T13:16:12.046Z,36.50
2023-05-15T13:17:06.157Z,36.10
2023-05-15T13:18:08.884Z,37.20
2023-05-15T13:20:03.523Z,36.60
2023-05-15T13:21:06.631Z,37.20
2023-05-15T13:22:05.557Z,37.10
2023-05-15T13:23:05.578Z,37.70
2023-05-15T13:24:09.199Z,36.60
2023-05-15T13:25:05.642Z,36.30
2023-05-15T13:26:05.806Z,36.40
2023-05-15T13:27:09.357Z,36.40
2023-05-15T13:28:05.314Z,36.40
2023-05-15T13:29:05.330Z,36.70
2023-05-15T13:30:05.292Z,37.80
2023-05-15T13:31:06.504Z,38.40
2023-05-15T13:32:05.488Z,38.60
2023-05-15T13:33:05.536Z,38.80
2023-05-15T13:34:05.621Z,39.70
2023-05-15T13:35:05.644Z,38.30
2023-05-15T13:36:05.902Z,38.60
2023-05-15T13:37:09.572Z,38.30
2023-05-15T13:38:05.553Z,39.00
2023-05-15T13:39:06.562Z,39.30
2023-05-15T13:40:09.099Z,39.70
2023-05-15T13:41:06.093Z,39.70
2023-05-15T13:42:06.057Z,41.30
2023-05-15T13:44:05.842Z,39.50
2023-05-15T13:45:09.509Z,38.70
2023-05-15T13:46:09.122Z,38.20
2023-05-15T13:48:05.758Z,38.60
2023-05-15T13:49:07.550Z,37.30
2023-05-15T13:50:06.786Z,38.30
2023-05-15T13:51:05.896Z,38.20
2023-05-15T13:52:05.892Z,37.10
2023-05-15T13:53:05.852Z,36.20
2023-05-15T13:54:05.894Z,34.50
2023-05-15T13:55:06.030Z,34.70
2023-05-15T13:56:06.022Z,34.70
2023-05-15T13:57:06.405Z,34.70
2023-05-15T13:58:06.421Z,33.90
2023-05-15T14:00:06.529Z,32.90
2023-05-15T14:02:05.710Z,33.60
2023-05-15T14:03:05.894Z,34.30
2023-05-15T14:04:06.243Z,34.50
2023-05-15T14:05:05.308Z,34.60
2023-05-15T14:06:08.906Z,34.60
2023-05-15T14:08:11.952Z,34.90
2023-05-15T14:10:05.616Z,34.10
2023-05-15T14:11:06.706Z,34.30
2023-05-15T14:13:06.865Z,34.10
2023-05-15T14:14:09.383Z,33.80
2023-05-15T14:15:03.755Z,33.70
2023-05-15T14:16:05.290Z,33.60
2023-05-15T14:17:05.526Z,33.50
2023-05-15T14:18:05.574Z,33.70
2023-05-15T14:19:09.286Z,33.80
2023-05-15T14:21:06.405Z,34.00
2023-05-15T14:22:08.858Z,35.20
2023-05-15T14:24:05.911Z,34.70
2023-05-15T14:25:03.564Z,35.00
2023-05-15T14:26:05.669Z,33.90
2023-05-15T14:27:05.730Z,34.60
2023-05-15T14:28:09.304Z,33.90
2023-05-15T14:29:03.784Z,34.00
2023-05-15T14:30:06.315Z,34.00
2023-05-15T14:31:03.780Z,34.10
2023-05-15T14:32:05.410Z,35.40
2023-05-15T14:33:05.569Z,34.90
2023-05-15T14:34:05.560Z,35.30
2023-05-15T14:35:06.619Z,35.80
2023-05-15T14:37:05.553Z,33.80
2023-05-15T14:38:05.620Z,34.00
2023-05-15T14:39:05.571Z,34.60
2023-05-15T14:40:05.821Z,34.60
2023-05-15T14:41:05.706Z,34.20
2023-05-15T14:42:05.758Z,34.10
2023-05-15T14:43:09.389Z,33.30
2023-05-15T14:44:06.380Z,34.00
2023-05-15T14:46:11.607Z,34.60
2023-05-15T14:48:05.744Z,34.10
2023-05-15T14:49:05.875Z,34.90
2023-05-15T14:50:03.601Z,33.60
2023-05-15T14:51:05.797Z,33.50
2023-05-15T14:52:05.744Z,33.20
2023-05-15T14:53:05.934Z,31.60
2023-05-15T14:54:08.601Z,31.70
2023-05-15T14:56:05.909Z,31.80
2023-05-15T14:58:09.327Z,31.80
2023-05-15T14:59:03.749Z,31.60
2023-05-15T15:00:05.427Z,32.10
2023-05-15T15:01:05.559Z,31.80
2023-05-15T15:02:05.683Z,32.00
2023-05-15T15:03:09.639Z,31.40
2023-05-15T15:04:09.463Z,31.80
2023-05-15T15:05:09.144Z,31.60
2023-05-15T15:07:05.726Z,31.80
2023-05-15T15:08:05.789Z,32.10
2023-05-15T15:09:05.761Z,32.20
2023-05-15T15:10:06.139Z,31.70
2023-05-15T15:11:03.725Z,31.90
2023-05-15T15:12:05.914Z,31.80